Time;durP1;ratioP1;P1;durP2;ratioP2;P2;SDS_P1;SDS_P2;PMS_P1;PMS_P2;Temp;Humidity;BMP_temperature;BMP_pressure;BME280_temperature;BME280_humidity;BME280_pressure;Samples;Min_cycle;Max_cycle;Signal;HPM_P1;HPM_P2
2022/02/13 00:02:23;;;;;;;;;47.75;33.75;;;;;;;;5056645;28;51046;-46
2022/02/13 00:05:09;;;;;;;;;40.50;33.50;;;;;;;;5059797;28;51101;-46
2022/02/13 00:07:54;;;;;;;;;42.50;32.50;;;;;;;;5059451;28;51688;-44
2022/02/13 00:10:43;;;;;;;;;45.50;32.50;;;;;;;;5058427;28;51161;-48
2022/02/13 00:13:27;;;;;;;;;44.25;33.50;;;;;;;;5049139;28;51066;-47
2022/02/13 00:16:14;;;;;;;;;31.50;28.75;;;;;;;;5058862;28;51063;-46
2022/02/13 00:18:59;;;;;;;;;45.00;33.75;;;;;;;;5059826;28;51134;-46
2022/02/13 00:21:53;;;;;;;;;43.00;31.75;;;;;;;;5060062;28;51265;-46
2022/02/13 00:24:38;;;;;;;;;39.50;32.00;;;;;;;;5060405;28;51079;-46
2022/02/13 00:27:22;;;;;;;;;38.25;30.50;;;;;;;;5059899;28;51185;-47
2022/02/13 00:30:13;;;;;;;;;42.75;33.00;;;;;;;;5048205;28;51173;-44
2022/02/13 00:32:57;;;;;;;;;39.50;32.25;;;;;;;;5039726;28;51511;-45
2022/02/13 00:35:42;;;;;;;;;37.50;32.50;;;;;;;;5039854;28;51114;-46
2022/02/13 00:38:28;;;;;;;;;39.00;33.00;;;;;;;;5053077;28;51158;-46
2022/02/13 00:41:12;;;;;;;;;41.50;32.75;;;;;;;;5058504;28;51145;-45
2022/02/13 00:43:58;;;;;;;;;41.00;32.50;;;;;;;;5059541;28;51663;-48
2022/02/13 00:46:42;;;;;;;;;40.50;32.00;;;;;;;;5039522;28;51224;-47
2022/02/13 00:49:39;;;;;;;;;45.50;33.75;;;;;;;;5040260;28;51171;-45
2022/02/13 00:52:23;;;;;;;;;43.00;31.50;;;;;;;;5039165;28;51072;-45
2022/02/13 00:55:09;;;;;;;;;39.50;32.75;;;;;;;;5039204;28;51166;-46
2022/02/13 00:57:55;;;;;;;;;39.75;31.75;;;;;;;;5039500;28;51109;-48
2022/02/13 01:00:39;;;;;;;;;44.25;32.50;;;;;;;;5039365;28;51099;-46
2022/02/13 01:03:24;;;;;;;;;36.75;30.50;;;;;;;;5039571;28;51202;-47
2022/02/13 01:06:11;;;;;;;;;38.75;34.25;;;;;;;;5039026;28;51083;-46
2022/02/13 01:09:00;;;;;;;;;38.75;30.50;;;;;;;;5039644;28;51009;-45
2022/02/13 01:11:45;;;;;;;;;37.75;31.00;;;;;;;;5039210;28;51130;-46
2022/02/13 01:14:30;;;;;;;;;38.00;30.00;;;;;;;;5039257;28;51187;-48
2022/02/13 01:17:17;;;;;;;;;43.75;33.00;;;;;;;;5038975;28;51072;-45
2022/02/13 01:20:01;;;;;;;;;46.00;33.25;;;;;;;;5046216;28;51094;-45
2022/02/13 01:22:46;;;;;;;;;43.50;33.75;;;;;;;;5059351;28;51110;-46
2022/02/13 01:25:33;;;;;;;;;39.50;32.00;;;;;;;;5058959;28;51101;-46
2022/02/13 01:28:19;;;;;;;;;41.00;32.50;;;;;;;;5059275;28;51081;-46
2022/02/13 01:31:04;;;;;;;;;48.00;33.25;;;;;;;;5058929;28;51444;-46
2022/02/13 01:33:49;;;;;;;;;42.00;33.00;;;;;;;;5051318;28;51667;-46
2022/02/13 01:36:33;;;;;;;;;42.75;33.25;;;;;;;;5041687;28;51255;-44
2022/02/13 01:39:17;;;;;;;;;46.50;33.00;;;;;;;;5048656;28;51135;-48
2022/02/13 01:42:10;;;;;;;;;39.75;32.75;;;;;;;;5057701;28;51129;-46
2022/02/13 01:44:57;;;;;;;;;45.00;33.25;;;;;;;;5042348;28;51310;-47
2022/02/13 01:47:42;;;;;;;;;36.75;31.50;;;;;;;;5040716;28;51023;-49
2022/02/13 01:50:27;;;;;;;;;46.25;32.25;;;;;;;;5051745;28;51051;-46
2022/02/13 01:53:12;;;;;;;;;39.25;31.75;;;;;;;;5050720;28;51227;-46
2022/02/13 01:55:56;;;;;;;;;37.00;30.25;;;;;;;;5058648;28;51109;-47
2022/02/13 01:58:44;;;;;;;;;42.50;30.75;;;;;;;;5058992;28;51634;-46
2022/02/13 02:01:31;;;;;;;;;38.75;31.00;;;;;;;;5056953;28;51074;-46
2022/02/13 02:04:26;;;;;;;;;48.00;34.25;;;;;;;;5059078;28;51011;-46
2022/02/13 02:07:11;;;;;;;;;47.50;33.50;;;;;;;;5058772;28;51459;-47
2022/02/13 02:10:07;;;;;;;;;41.75;32.00;;;;;;;;5058679;28;51076;-46
2022/02/13 02:12:52;;;;;;;;;37.75;31.25;;;;;;;;5058834;28;51596;-45
2022/02/13 02:15:47;;;;;;;;;45.00;34.25;;;;;;;;5058935;28;51073;-46
2022/02/13 02:18:31;;;;;;;;;41.25;31.25;;;;;;;;5059112;28;51193;-46
2022/02/13 02:21:16;;;;;;;;;38.25;29.00;;;;;;;;5058266;28;51222;-46
2022/02/13 02:24:00;;;;;;;;;37.50;30.75;;;;;;;;5042571;28;51587;-48
2022/02/13 02:26:49;;;;;;;;;40.50;33.25;;;;;;;;5039712;28;51052;-45
2022/02/13 02:29:33;;;;;;;;;41.25;32.75;;;;;;;;5042750;28;51091;-50
2022/02/13 02:32:20;;;;;;;;;40.25;32.25;;;;;;;;5041951;28;51134;-45
2022/02/13 02:35:06;;;;;;;;;42.75;33.50;;;;;;;;5042558;28;51166;-46
2022/02/13 02:37:55;;;;;;;;;38.75;32.00;;;;;;;;5061962;28;51682;-47
2022/02/13 02:40:41;;;;;;;;;39.25;31.00;;;;;;;;5062147;28;51173;-47
2022/02/13 02:43:26;;;;;;;;;44.00;33.25;;;;;;;;5060942;28;51291;-46
2022/02/13 02:46:11;;;;;;;;;46.50;35.50;;;;;;;;5061399;28;51195;-47
2022/02/13 02:48:57;;;;;;;;;40.25;33.00;;;;;;;;5062416;28;51529;-47
2022/02/13 02:51:41;;;;;;;;;38.75;32.00;;;;;;;;5050526;28;51013;-47
2022/02/13 02:54:41;;;;;;;;;43.50;33.00;;;;;;;;5059193;28;51102;-45
2022/02/13 02:57:28;;;;;;;;;42.25;32.50;;;;;;;;5060416;28;51429;-45
2022/02/13 03:00:16;;;;;;;;;43.00;32.25;;;;;;;;5061993;28;51342;-46
2022/02/13 03:03:01;;;;;;;;;46.75;34.00;;;;;;;;5057738;28;51172;-46
2022/02/13 03:05:50;;;;;;;;;42.50;32.25;;;;;;;;5046720;28;51165;-46
2022/02/13 03:08:44;;;;;;;;;40.25;32.00;;;;;;;;5058824;28;51051;-45
2022/02/13 03:11:29;;;;;;;;;43.75;32.00;;;;;;;;5046078;28;51099;-46
2022/02/13 03:14:14;;;;;;;;;34.75;30.25;;;;;;;;5041573;28;51191;-44
2022/02/13 03:17:06;;;;;;;;;33.50;30.50;;;;;;;;5041375;28;51123;-47
2022/02/13 03:20:03;;;;;;;;;43.75;33.50;;;;;;;;5041603;28;51128;-46
2022/02/13 03:22:47;;;;;;;;;37.25;32.25;;;;;;;;5041076;28;51507;-45
2022/02/13 03:25:32;;;;;;;;;34.00;30.25;;;;;;;;5041316;28;51377;-49
2022/02/13 03:28:23;;;;;;;;;39.75;30.00;;;;;;;;5041242;28;51200;-45
2022/02/13 03:31:09;;;;;;;;;39.50;32.50;;;;;;;;5041084;28;51163;-45
2022/02/13 03:33:54;;;;;;;;;45.00;33.00;;;;;;;;5041216;28;51322;-46
2022/02/13 03:36:38;;;;;;;;;40.00;32.00;;;;;;;;5041548;28;51057;-47
2022/02/13 03:39:29;;;;;;;;;41.00;30.75;;;;;;;;5055042;28;51014;-47
2022/02/13 03:42:15;;;;;;;;;47.50;31.75;;;;;;;;5040765;28;51020;-45
2022/02/13 03:44:59;;;;;;;;;44.75;33.25;;;;;;;;5043961;28;51020;-46
2022/02/13 03:47:54;;;;;;;;;34.75;30.50;;;;;;;;5056193;28;51467;-46
2022/02/13 03:50:40;;;;;;;;;38.75;28.75;;;;;;;;5040935;28;51086;-46
2022/02/13 03:53:34;;;;;;;;;37.25;32.50;;;;;;;;5060869;28;51047;-45
2022/02/13 03:56:39;;;;;;;;;39.50;33.75;;;;;;;;5060702;28;51137;-45
2022/02/13 03:59:25;;;;;;;;;45.75;32.00;;;;;;;;5060694;28;51036;-46
2022/02/13 04:02:10;;;;;;;;;38.75;30.50;;;;;;;;5061018;28;51172;-46
2022/02/13 04:04:57;;;;;;;;;41.50;31.50;;;;;;;;5049235;28;51256;-47
2022/02/13 04:07:52;;;;;;;;;31.50;27.75;;;;;;;;5040600;28;51083;-46
2022/02/13 04:10:37;;;;;;;;;38.75;33.25;;;;;;;;5040576;28;51168;-46
2022/02/13 04:13:32;;;;;;;;;36.25;31.50;;;;;;;;5040177;28;51170;-45
2022/02/13 04:16:30;;;;;;;;;41.00;29.50;;;;;;;;5040278;28;51130;-47
2022/02/13 04:19:16;;;;;;;;;38.25;31.25;;;;;;;;5040282;28;51100;-46
2022/02/13 04:22:03;;;;;;;;;37.75;31.75;;;;;;;;5040207;28;50999;-45
2022/02/13 04:24:51;;;;;;;;;44.50;33.25;;;;;;;;5040474;28;51013;-45
2022/02/13 04:27:37;;;;;;;;;41.50;30.75;;;;;;;;5039897;28;51307;-45
2022/02/13 04:30:26;;;;;;;;;35.00;29.50;;;;;;;;5040045;28;51653;-45
2022/02/13 04:33:10;;;;;;;;;41.00;32.25;;;;;;;;5059154;28;51104;-47
2022/02/13 04:35:56;;;;;;;;;35.50;30.75;;;;;;;;5060480;28;51220;-45
2022/02/13 04:38:41;;;;;;;;;41.00;28.50;;;;;;;;5059762;28;51109;-46
2022/02/13 04:41:25;;;;;;;;;42.25;34.25;;;;;;;;5048281;28;51162;-45
2022/02/13 04:44:10;;;;;;;;;45.00;33.00;;;;;;;;5059059;28;51452;-48
2022/02/13 04:46:56;;;;;;;;;40.25;32.50;;;;;;;;5042798;28;51203;-47
2022/02/13 04:49:42;;;;;;;;;49.50;38.00;;;;;;;;5055057;28;51073;-46
2022/02/13 04:52:36;;;;;;;;;44.00;34.00;;;;;;;;5058890;28;51177;-46
2022/02/13 04:55:21;;;;;;;;;37.25;31.75;;;;;;;;5039792;28;51613;-44
2022/02/13 04:58:24;;;;;;;;;42.25;32.25;;;;;;;;5053711;28;51158;-46
2022/02/13 05:01:19;;;;;;;;;45.00;32.25;;;;;;;;5039545;28;51525;-45
2022/02/13 05:04:07;;;;;;;;;46.25;33.25;;;;;;;;5039267;28;51482;-47
2022/02/13 05:07:17;;;;;;;;;38.00;31.50;;;;;;;;5059401;28;51109;-46
2022/02/13 05:10:02;;;;;;;;;42.25;31.00;;;;;;;;5057609;28;51181;-46
2022/02/13 05:12:47;;;;;;;;;37.75;32.00;;;;;;;;5043622;28;51460;-46
2022/02/13 05:15:33;;;;;;;;;38.50;29.50;;;;;;;;5038938;28;51356;-45
2022/02/13 05:18:18;;;;;;;;;37.50;31.50;;;;;;;;5050482;28;51187;-45
2022/02/13 05:21:03;;;;;;;;;39.75;31.75;;;;;;;;5059535;28;50979;-46
2022/02/13 05:23:48;;;;;;;;;37.75;30.00;;;;;;;;5058374;28;51183;-46
2022/02/13 05:26:43;;;;;;;;;35.00;28.25;;;;;;;;5057697;28;51168;-47
2022/02/13 05:29:29;;;;;;;;;41.25;32.00;;;;;;;;5056499;28;51352;-46
2022/02/13 05:32:14;;;;;;;;;41.00;30.50;;;;;;;;5057958;28;51143;-45
2022/02/13 05:35:00;;;;;;;;;36.75;30.25;;;;;;;;5056610;28;51230;-46
2022/02/13 05:37:47;;;;;;;;;38.75;29.75;;;;;;;;5057664;28;51198;-45
2022/02/13 05:40:32;;;;;;;;;33.25;29.00;;;;;;;;5054328;28;51102;-47
2022/02/13 05:43:18;;;;;;;;;48.75;34.00;;;;;;;;5054913;28;51019;-43
2022/02/13 05:46:03;;;;;;;;;40.00;32.25;;;;;;;;5057964;28;51596;-45
2022/02/13 05:48:49;;;;;;;;;34.00;30.50;;;;;;;;5055263;28;51235;-47
2022/02/13 05:51:36;;;;;;;;;41.00;30.75;;;;;;;;5057214;28;51141;-46
2022/02/13 05:54:20;;;;;;;;;36.25;30.75;;;;;;;;5055803;28;51106;-47
2022/02/13 05:57:06;;;;;;;;;37.25;30.50;;;;;;;;5057667;28;51054;-45
2022/02/13 05:59:50;;;;;;;;;39.75;32.25;;;;;;;;5054922;28;51820;-47
2022/02/13 06:02:35;;;;;;;;;35.75;29.75;;;;;;;;5058806;28;51122;-46
2022/02/13 06:05:23;;;;;;;;;40.25;32.25;;;;;;;;5062185;28;51150;-47
2022/02/13 06:08:07;;;;;;;;;42.75;32.00;;;;;;;;5060709;28;51128;-47
2022/02/13 06:11:03;;;;;;;;;43.25;32.75;;;;;;;;5060879;28;51663;-46
2022/02/13 06:13:48;;;;;;;;;38.00;30.75;;;;;;;;5061121;28;51153;-45
2022/02/13 06:16:33;;;;;;;;;48.00;32.50;;;;;;;;5060849;28;50972;-46
2022/02/13 06:19:26;;;;;;;;;36.50;31.75;;;;;;;;5060365;28;51141;-47
2022/02/13 06:22:10;;;;;;;;;42.75;34.50;;;;;;;;5059937;28;51153;-46
2022/02/13 06:24:56;;;;;;;;;44.00;33.25;;;;;;;;5061117;28;51087;-44
2022/02/13 06:27:40;;;;;;;;;36.00;30.75;;;;;;;;5060729;28;51168;-48
2022/02/13 06:30:25;;;;;;;;;38.00;31.00;;;;;;;;5042189;28;51158;-46
2022/02/13 06:33:16;;;;;;;;;44.00;33.50;;;;;;;;5042106;28;51138;-49
2022/02/13 06:36:00;;;;;;;;;37.50;30.50;;;;;;;;5058381;28;51245;-47
2022/02/13 06:38:44;;;;;;;;;36.25;30.50;;;;;;;;5058842;28;51562;-49
2022/02/13 06:41:30;;;;;;;;;37.50;31.25;;;;;;;;5050270;28;51025;-47
2022/02/13 06:44:17;;;;;;;;;44.00;30.75;;;;;;;;5042742;28;51124;-50
2022/02/13 06:47:04;;;;;;;;;35.25;29.50;;;;;;;;5041632;28;51146;-47
2022/02/13 06:49:50;;;;;;;;;44.25;32.50;;;;;;;;5062178;28;51126;-47
2022/02/13 06:52:36;;;;;;;;;35.75;30.25;;;;;;;;5051606;28;51013;-49
2022/02/13 06:55:20;;;;;;;;;38.00;33.00;;;;;;;;5071022;27;51423;-47
2022/02/13 06:58:06;;;;;;;;;37.25;31.50;;;;;;;;5043090;28;51149;-45
2022/02/13 07:00:52;;;;;;;;;34.25;29.25;;;;;;;;5041927;28;51527;-46
2022/02/13 07:03:47;;;;;;;;;45.00;30.50;;;;;;;;5061125;28;51122;-49
2022/02/13 07:06:31;;;;;;;;;43.50;32.50;;;;;;;;5061576;28;51086;-45
2022/02/13 07:09:17;;;;;;;;;38.00;31.25;;;;;;;;5060152;28;51375;-47
2022/02/13 07:12:09;;;;;;;;;42.50;32.75;;;;;;;;5061084;28;52436;-48
2022/02/13 07:14:54;;;;;;;;;43.50;33.25;;;;;;;;5061751;28;51658;-50
2022/02/13 07:17:39;;;;;;;;;32.00;30.00;;;;;;;;5061727;28;51131;-50
2022/02/13 07:20:23;;;;;;;;;36.75;29.75;;;;;;;;5061083;28;51409;-47
2022/02/13 07:23:08;;;;;;;;;37.50;27.50;;;;;;;;5051220;28;51169;-50
2022/02/13 07:25:53;;;;;;;;;44.50;31.25;;;;;;;;5060621;28;51116;-50
2022/02/13 07:31:40;;;;;;;;;37.00;29.75;;;;;;;;5051759;28;50991;-49
2022/02/13 07:34:24;;;;;;;;;35.50;27.00;;;;;;;;5057988;28;50993;-50
2022/02/13 07:37:10;;;;;;;;;38.75;30.25;;;;;;;;5060986;28;51084;-46
2022/02/13 07:39:56;;;;;;;;;38.75;30.75;;;;;;;;5055757;28;51114;-49
2022/02/13 07:42:41;;;;;;;;;43.75;34.00;;;;;;;;5061133;28;51083;-48
2022/02/13 07:45:28;;;;;;;;;41.25;30.75;;;;;;;;5060519;28;51047;-49
2022/02/13 07:48:12;;;;;;;;;35.75;29.25;;;;;;;;5060695;28;51142;-50
2022/02/13 07:50:57;;;;;;;;;33.00;29.00;;;;;;;;5053474;28;51217;-47
2022/02/13 07:53:45;;;;;;;;;38.00;30.25;;;;;;;;5059940;28;51102;-47
2022/02/13 07:56:30;;;;;;;;;32.75;29.25;;;;;;;;5060438;28;51189;-45
2022/02/13 07:59:16;;;;;;;;;36.25;29.00;;;;;;;;5050965;28;51082;-51
2022/02/13 08:02:00;;;;;;;;;38.50;29.50;;;;;;;;5040256;28;51207;-47
2022/02/13 08:04:45;;;;;;;;;32.00;28.00;;;;;;;;5037095;28;51116;-50
2022/02/13 08:07:31;;;;;;;;;31.00;27.25;;;;;;;;5049993;28;51084;-48
2022/02/13 08:10:15;;;;;;;;;34.50;29.50;;;;;;;;5044352;28;51197;-51
2022/02/13 08:12:59;;;;;;;;;41.25;29.25;;;;;;;;5057566;28;51188;-45
2022/02/13 08:15:44;;;;;;;;;34.75;27.75;;;;;;;;5055050;28;51673;-50
2022/02/13 08:18:39;;;;;;;;;36.25;29.25;;;;;;;;5036602;28;51193;-47
2022/02/13 08:21:23;;;;;;;;;38.50;29.25;;;;;;;;5037442;28;51325;-46
2022/02/13 08:24:10;;;;;;;;;30.50;28.50;;;;;;;;5038040;28;51403;-49
2022/02/13 08:26:56;;;;;;;;;35.00;27.50;;;;;;;;5039005;28;51093;-49
2022/02/13 08:29:52;;;;;;;;;32.50;28.25;;;;;;;;5039953;28;51087;-52
2022/02/13 08:32:43;;;;;;;;;38.75;28.00;;;;;;;;5059096;28;51094;-48
2022/02/13 08:35:27;;;;;;;;;30.25;24.50;;;;;;;;5059145;28;51661;-49
2022/02/13 08:38:12;;;;;;;;;36.50;29.50;;;;;;;;5058556;28;51078;-48
2022/02/13 08:40:58;;;;;;;;;33.75;27.00;;;;;;;;5058864;28;51595;-45
2022/02/13 08:43:42;;;;;;;;;36.50;28.75;;;;;;;;5057992;28;51157;-45
2022/02/13 08:46:28;;;;;;;;;30.75;27.50;;;;;;;;5044459;28;51126;-50
2022/02/13 08:49:12;;;;;;;;;35.00;29.25;;;;;;;;5056085;28;51202;-49
2022/02/13 08:51:57;;;;;;;;;31.75;28.25;;;;;;;;5038880;28;51105;-49
2022/02/13 08:54:47;;;;;;;;;34.00;25.25;;;;;;;;5051281;28;51053;-47
2022/02/13 08:57:32;;;;;;;;;31.25;25.00;;;;;;;;5058694;28;51081;-48
2022/02/13 09:00:19;;;;;;;;;29.50;25.75;;;;;;;;5058330;28;51329;-47
2022/02/13 09:03:04;;;;;;;;;41.00;32.25;;;;;;;;5058346;28;51074;-51
2022/02/13 09:05:48;;;;;;;;;35.00;30.50;;;;;;;;5058136;28;51206;-47
2022/02/13 09:08:32;;;;;;;;;34.50;25.00;;;;;;;;5044277;28;51458;-47
2022/02/13 09:11:18;;;;;;;;;30.25;24.50;;;;;;;;5057778;28;51137;-50
2022/02/13 09:14:07;;;;;;;;;30.50;26.25;;;;;;;;5057695;28;51111;-51
2022/02/13 09:16:54;;;;;;;;;31.50;30.00;;;;;;;;5045874;28;51044;-50
2022/02/13 09:19:39;;;;;;;;;27.50;24.50;;;;;;;;5037800;28;51320;-46
2022/02/13 09:22:23;;;;;;;;;34.75;27.00;;;;;;;;5037970;28;51226;-48
2022/02/13 09:25:09;;;;;;;;;34.25;26.50;;;;;;;;5037934;28;51259;-55
2022/02/13 09:27:53;;;;;;;;;33.00;27.75;;;;;;;;5037903;28;51107;-50
2022/02/13 09:30:49;;;;;;;;;40.75;30.00;;;;;;;;5037899;28;51589;-51
2022/02/13 09:33:35;;;;;;;;;29.25;26.00;;;;;;;;5037660;28;51108;-50
2022/02/13 09:36:20;;;;;;;;;29.75;26.75;;;;;;;;5058051;28;50988;-50
2022/02/13 09:39:05;;;;;;;;;34.75;28.25;;;;;;;;5057443;28;51089;-53
2022/02/13 09:41:50;;;;;;;;;34.00;27.50;;;;;;;;5057881;28;51141;-49
2022/02/13 09:44:35;;;;;;;;;35.00;29.75;;;;;;;;5058085;28;51150;-48
2022/02/13 09:47:21;;;;;;;;;28.75;26.00;;;;;;;;5057541;28;51110;-53
2022/02/13 09:50:06;;;;;;;;;34.00;28.25;;;;;;;;5056721;28;51077;-50
2022/02/13 09:52:54;;;;;;;;;30.75;27.50;;;;;;;;5017303;28;51127;-51
2022/02/13 09:55:49;;;;;;;;;37.00;29.25;;;;;;;;5017706;28;51657;-46
2022/02/13 09:58:34;;;;;;;;;39.25;30.75;;;;;;;;5017460;28;51314;-53
2022/02/13 10:01:32;;;;;;;;;38.25;30.50;;;;;;;;5017607;28;51454;-50
2022/02/13 10:04:38;;;;;;;;;39.25;29.75;;;;;;;;5016867;28;51213;-52
2022/02/13 10:07:23;;;;;;;;;34.25;28.25;;;;;;;;5017634;28;51669;-47
2022/02/13 10:10:09;;;;;;;;;31.25;26.75;;;;;;;;5016845;28;51217;-45
2022/02/13 10:12:53;;;;;;;;;28.00;25.75;;;;;;;;5017480;28;51137;-48
2022/02/13 10:15:38;;;;;;;;;29.25;27.25;;;;;;;;5017239;28;52064;-46
2022/02/13 10:18:23;;;;;;;;;33.25;29.50;;;;;;;;5016317;28;51032;-47
2022/02/13 10:21:08;;;;;;;;;39.50;29.50;;;;;;;;5017330;28;51557;-52
2022/02/13 10:24:10;;;;;;;;;23.75;22.00;;;;;;;;5017220;28;51045;-50
2022/02/13 10:26:57;;;;;;;;;31.50;23.50;;;;;;;;5017483;28;51202;-50
2022/02/13 10:29:42;;;;;;;;;31.50;28.75;;;;;;;;5017063;28;51434;-52
2022/02/13 10:32:30;;;;;;;;;30.00;27.25;;;;;;;;5017448;28;51068;-50
2022/02/13 10:35:15;;;;;;;;;34.25;27.75;;;;;;;;5016861;28;51073;-51
2022/02/13 10:38:00;;;;;;;;;35.75;26.25;;;;;;;;5017913;28;51489;-52
2022/02/13 10:40:44;;;;;;;;;28.25;25.50;;;;;;;;5016938;28;51475;-50
2022/02/13 10:43:29;;;;;;;;;32.50;24.75;;;;;;;;5017036;28;51128;-54
2022/02/13 10:46:17;;;;;;;;;25.50;23.50;;;;;;;;5014770;28;51080;-51
2022/02/13 10:49:04;;;;;;;;;30.00;26.25;;;;;;;;5018899;28;51070;-50
2022/02/13 10:51:51;;;;;;;;;35.50;27.75;;;;;;;;5035433;28;51394;-53
2022/02/13 10:54:39;;;;;;;;;30.25;24.50;;;;;;;;5039444;28;51182;-48
2022/02/13 10:57:23;;;;;;;;;31.75;24.25;;;;;;;;5039903;28;51246;-49
2022/02/13 11:00:14;;;;;;;;;30.25;26.00;;;;;;;;5058687;28;51180;-50
2022/02/13 11:03:04;;;;;;;;;29.50;24.25;;;;;;;;5057958;28;51153;-47
2022/02/13 11:05:48;;;;;;;;;35.00;30.00;;;;;;;;5057499;28;51435;-50
2022/02/13 11:08:42;;;;;;;;;37.50;29.50;;;;;;;;5058003;28;51133;-50
2022/02/13 11:11:26;;;;;;;;;38.00;28.00;;;;;;;;5060457;28;51185;-45
2022/02/13 11:14:31;;;;;;;;;35.75;25.25;;;;;;;;5060885;28;51158;-47
2022/02/13 11:17:33;;;;;;;;;28.75;25.75;;;;;;;;5055024;28;51041;-46
2022/02/13 11:20:18;;;;;;;;;26.50;23.75;;;;;;;;5052945;28;51479;-50
2022/02/13 11:23:21;;;;;;;;;37.25;29.25;;;;;;;;5047645;27;51274;-50
2022/02/13 11:26:06;;;;;;;;;32.50;25.50;;;;;;;;5048240;28;51401;-49
2022/02/13 11:28:51;;;;;;;;;29.50;25.75;;;;;;;;5053514;28;51170;-52
2022/02/13 11:31:39;;;;;;;;;27.50;24.50;;;;;;;;5059482;28;51374;-50
2022/02/13 11:34:27;;;;;;;;;31.25;25.25;;;;;;;;5053097;28;51229;-51
2022/02/13 11:37:24;;;;;;;;;34.00;25.75;;;;;;;;5057157;28;51539;-52
2022/02/13 11:40:29;;;;;;;;;32.75;27.50;;;;;;;;5056324;28;51093;-48
2022/02/13 11:43:14;;;;;;;;;31.50;26.00;;;;;;;;5042091;28;50981;-50
2022/02/13 11:45:58;;;;;;;;;32.50;27.00;;;;;;;;5039278;28;51052;-51
2022/02/13 11:48:43;;;;;;;;;29.25;24.50;;;;;;;;5054289;28;51565;-46
2022/02/13 11:51:45;;;;;;;;;33.75;26.75;;;;;;;;5051252;28;51609;-44
2022/02/13 11:54:40;;;;;;;;;35.00;26.00;;;;;;;;5048184;28;51139;-47
2022/02/13 11:57:28;;;;;;;;;29.75;25.50;;;;;;;;5041321;28;51399;-47
2022/02/13 12:00:14;;;;;;;;;33.50;28.75;;;;;;;;5053450;28;51066;-48
2022/02/13 12:03:00;;;;;;;;;33.00;27.75;;;;;;;;5046836;28;51473;-48
2022/02/13 12:06:05;;;;;;;;;34.25;28.75;;;;;;;;5040119;28;51031;-52
2022/02/13 12:08:50;;;;;;;;;33.25;26.75;;;;;;;;5057922;28;51082;-52
2022/02/13 12:11:36;;;;;;;;;26.25;23.75;;;;;;;;5059165;28;51363;-48
2022/02/13 12:14:23;;;;;;;;;30.00;26.25;;;;;;;;5060084;28;51452;-48
2022/02/13 12:17:10;;;;;;;;;27.75;24.00;;;;;;;;5055772;28;51142;-52
2022/02/13 12:20:00;;;;;;;;;28.00;25.00;;;;;;;;5043802;28;51643;-46
2022/02/13 12:22:45;;;;;;;;;31.25;23.25;;;;;;;;5053174;28;51672;-50
2022/02/13 12:25:31;;;;;;;;;27.50;20.00;;;;;;;;5054607;28;51056;-47
2022/02/13 12:28:19;;;;;;;;;27.75;22.50;;;;;;;;5041467;28;51169;-46
2022/02/13 12:31:04;;;;;;;;;34.75;28.25;;;;;;;;5057345;28;51509;-50
2022/02/13 12:33:51;;;;;;;;;37.00;26.50;;;;;;;;5059872;28;51157;-49
2022/02/13 12:36:35;;;;;;;;;27.50;24.25;;;;;;;;5059729;28;51514;-46
2022/02/13 12:39:25;;;;;;;;;29.00;25.75;;;;;;;;5045776;28;51524;-50
2022/02/13 12:42:10;;;;;;;;;23.50;21.50;;;;;;;;5055725;28;51140;-48
2022/02/13 12:44:55;;;;;;;;;38.50;29.75;;;;;;;;5048883;28;51141;-49
2022/02/13 12:47:43;;;;;;;;;26.25;24.00;;;;;;;;5043815;28;51177;-48
2022/02/13 12:50:34;;;;;;;;;33.00;24.50;;;;;;;;5056358;28;51187;-48
2022/02/13 12:53:22;;;;;;;;;28.00;27.25;;;;;;;;5053850;28;51162;-47
2022/02/13 12:56:15;;;;;;;;;30.00;23.00;;;;;;;;5050284;28;51129;-45
2022/02/13 12:59:00;;;;;;;;;25.25;21.75;;;;;;;;5039922;28;51031;-46
2022/02/13 13:01:47;;;;;;;;;30.75;27.50;;;;;;;;5038805;28;51438;-44
2022/02/13 13:04:32;;;;;;;;;27.00;26.50;;;;;;;;5039182;28;51507;-47
2022/02/13 13:07:23;;;;;;;;;36.50;27.75;;;;;;;;5038667;28;51150;-49
2022/02/13 13:10:20;;;;;;;;;26.50;24.75;;;;;;;;5043560;28;51162;-47
2022/02/13 13:13:11;;;;;;;;;31.75;25.25;;;;;;;;5047623;28;51102;-47
2022/02/13 13:16:03;;;;;;;;;38.50;28.50;;;;;;;;5050392;28;51115;-50
2022/02/13 13:18:47;;;;;;;;;29.75;25.00;;;;;;;;5038927;28;51191;-47
2022/02/13 13:21:35;;;;;;;;;27.75;22.50;;;;;;;;5039783;28;51119;-51
2022/02/13 13:24:25;;;;;;;;;34.50;26.25;;;;;;;;5038898;28;51087;-52
2022/02/13 13:27:16;;;;;;;;;28.25;23.50;;;;;;;;5038837;28;51574;-49
2022/02/13 13:30:00;;;;;;;;;31.00;26.50;;;;;;;;5040817;28;51098;-48
2022/02/13 13:32:49;;;;;;;;;26.75;23.25;;;;;;;;5042023;28;51100;-45
2022/02/13 13:35:34;;;;;;;;;34.25;26.00;;;;;;;;5054945;28;51305;-49
2022/02/13 13:38:33;;;;;;;;;33.25;29.25;;;;;;;;5058010;28;51109;-49
2022/02/13 13:41:17;;;;;;;;;29.25;27.50;;;;;;;;5056319;28;51206;-47
2022/02/13 13:44:17;;;;;;;;;31.50;27.75;;;;;;;;5053148;28;51583;-47
2022/02/13 13:47:01;;;;;;;;;34.50;26.00;;;;;;;;5057928;28;51200;-47
2022/02/13 13:49:46;;;;;;;;;27.75;24.50;;;;;;;;5042323;28;51167;-49
2022/02/13 13:52:30;;;;;;;;;35.25;27.50;;;;;;;;5054033;28;51400;-51
2022/02/13 13:55:15;;;;;;;;;27.25;25.75;;;;;;;;5057421;28;51041;-52
2022/02/13 13:57:59;;;;;;;;;26.50;24.50;;;;;;;;5056202;28;51525;-47
2022/02/13 14:00:46;;;;;;;;;35.75;29.25;;;;;;;;5057350;28;51087;-48
2022/02/13 14:03:30;;;;;;;;;33.25;26.25;;;;;;;;5054924;28;51253;-47
2022/02/13 14:06:15;;;;;;;;;29.25;28.00;;;;;;;;5056430;28;51143;-46
2022/02/13 14:09:00;;;;;;;;;24.75;23.50;;;;;;;;5057797;28;51221;-49
2022/02/13 14:11:44;;;;;;;;;28.00;24.00;;;;;;;;5056385;28;51095;-48
2022/02/13 14:14:31;;;;;;;;;31.25;25.00;;;;;;;;5053378;28;51102;-46
2022/02/13 14:17:20;;;;;;;;;30.50;28.50;;;;;;;;5055385;28;51624;-48
2022/02/13 14:20:05;;;;;;;;;32.25;24.75;;;;;;;;5038223;28;51137;-47
2022/02/13 14:22:49;;;;;;;;;37.75;28.25;;;;;;;;5055580;28;51165;-51
2022/02/13 14:25:33;;;;;;;;;30.25;25.50;;;;;;;;5062762;28;51166;-46
2022/02/13 14:28:18;;;;;;;;;32.50;29.00;;;;;;;;5051490;28;51331;-48
2022/02/13 14:31:07;;;;;;;;;33.75;25.75;;;;;;;;5042560;28;51063;-47
2022/02/13 14:33:52;;;;;;;;;29.75;26.00;;;;;;;;5048674;28;51629;-45
2022/02/13 14:36:36;;;;;;;;;34.25;26.00;;;;;;;;5047640;28;51129;-47
2022/02/13 14:39:21;;;;;;;;;30.00;26.75;;;;;;;;5042387;28;51009;-50
2022/02/13 14:42:05;;;;;;;;;37.00;27.75;;;;;;;;5042389;28;51456;-48
2022/02/13 14:44:50;;;;;;;;;34.00;24.25;;;;;;;;5054093;28;51405;-50
2022/02/13 14:47:34;;;;;;;;;33.75;28.25;;;;;;;;5061462;28;51124;-47
2022/02/13 14:50:18;;;;;;;;;36.00;29.25;;;;;;;;5058278;28;51164;-47
2022/02/13 14:53:02;;;;;;;;;34.00;29.00;;;;;;;;5044605;28;51455;-48
2022/02/13 14:55:47;;;;;;;;;38.00;29.00;;;;;;;;5052450;28;51170;-48
2022/02/13 14:58:32;;;;;;;;;31.25;25.00;;;;;;;;5046764;28;51473;-51
2022/02/13 15:01:16;;;;;;;;;33.00;23.75;;;;;;;;5046471;28;51118;-48
2022/02/13 15:04:06;;;;;;;;;38.50;30.00;;;;;;;;5061001;28;51164;-54
2022/02/13 15:06:51;;;;;;;;;41.75;32.25;;;;;;;;5055009;28;51564;-50
2022/02/13 15:09:36;;;;;;;;;36.50;29.25;;;;;;;;5054477;28;51348;-47
2022/02/13 15:12:23;;;;;;;;;36.50;30.00;;;;;;;;5059661;28;51066;-47
2022/02/13 15:15:09;;;;;;;;;30.75;26.75;;;;;;;;5061244;28;51130;-49
2022/02/13 15:17:53;;;;;;;;;32.50;27.50;;;;;;;;5048532;28;51186;-47
2022/02/13 15:20:47;;;;;;;;;31.00;29.25;;;;;;;;5039984;28;51161;-47
2022/02/13 15:23:32;;;;;;;;;27.75;27.25;;;;;;;;5045621;28;51996;-47
2022/02/13 15:26:18;;;;;;;;;35.75;28.75;;;;;;;;5041079;28;51121;-47
2022/02/13 15:29:02;;;;;;;;;33.50;28.00;;;;;;;;5059131;28;51209;-46
2022/02/13 15:31:54;;;;;;;;;34.50;28.75;;;;;;;;5060045;28;51157;-47
2022/02/13 15:34:43;;;;;;;;;41.50;30.25;;;;;;;;5060112;28;51174;-47
2022/02/13 15:37:27;;;;;;;;;30.75;28.50;;;;;;;;5060620;28;51138;-50
2022/02/13 15:40:17;;;;;;;;;35.50;29.50;;;;;;;;5056148;28;51711;-49
2022/02/13 15:43:02;;;;;;;;;30.75;28.25;;;;;;;;5070824;27;51484;-50
2022/02/13 15:45:47;;;;;;;;;36.25;29.00;;;;;;;;5044870;28;51582;-50
2022/02/13 15:48:32;;;;;;;;;33.00;27.75;;;;;;;;5042269;28;51158;-48
2022/02/13 15:51:17;;;;;;;;;34.00;27.75;;;;;;;;5039794;28;51190;-49
2022/02/13 15:54:01;;;;;;;;;31.75;27.00;;;;;;;;5040552;28;51091;-48
2022/02/13 15:56:46;;;;;;;;;27.00;24.25;;;;;;;;5053104;28;51151;-48
2022/02/13 15:59:30;;;;;;;;;35.00;30.75;;;;;;;;5049554;28;51556;-50
2022/02/13 16:02:14;;;;;;;;;36.25;29.25;;;;;;;;5045009;28;51292;-50
2022/02/13 16:04:59;;;;;;;;;38.00;30.00;;;;;;;;5049488;28;51082;-51
2022/02/13 16:07:44;;;;;;;;;35.00;29.00;;;;;;;;5059716;28;51491;-47
2022/02/13 16:10:28;;;;;;;;;33.50;28.00;;;;;;;;5060131;28;51298;-49
2022/02/13 16:13:13;;;;;;;;;35.50;29.50;;;;;;;;5053734;28;51169;-45
2022/02/13 16:15:57;;;;;;;;;35.50;28.25;;;;;;;;5042491;28;51262;-44